Time;durP1;ratioP1;P1;durP2;ratioP2;P2;SDS_P1;SDS_P2;PMS_P1;PMS_P2;Temp;Humidity;BMP_temperature;BMP_pressure;BME280_temperature;BME280_humidity;BME280_pressure;Samples;Min_cycle;Max_cycle;Signal;HPM_P1;HPM_P2
2022/01/09 00:02:25;;;;;;;0.32;0.10;;;;;;;;;;5032223;28;20254;-66
2022/01/09 00:04:50;;;;;;;0.30;0.20;;;;;;;;;;5031983;28;20049;-66
2022/01/09 00:07:15;;;;;;;0.32;0.10;;;;;;;;;;5032133;28;20221;-66
2022/01/09 00:09:43;;;;;;;0.80;0.20;;;;;;;;;;5032219;28;20028;-66
2022/01/09 00:12:08;;;;;;;0.85;0.32;;;;;;;;;;5031964;28;20854;-66
2022/01/09 00:14:33;;;;;;;0.68;0.30;;;;;;;;;;5032107;28;20053;-68
2022/01/09 00:16:59;;;;;;;1.80;0.20;;;;;;;;;;5032007;28;20385;-66
2022/01/09 00:19:25;;;;;;;1.13;0.28;;;;;;;;;;5032174;28;20471;-66
2022/01/09 00:21:50;;;;;;;1.33;0.20;;;;;;;;;;5032021;28;20036;-66
2022/01/09 00:24:15;;;;;;;0.67;0.27;;;;;;;;;;5031857;28;20017;-66
2022/01/09 00:26:40;;;;;;;0.63;0.20;;;;;;;;;;5032072;28;20242;-66
2022/01/09 00:29:07;;;;;;;0.98;0.22;;;;;;;;;;5031895;28;20055;-69
2022/01/09 00:31:32;;;;;;;0.65;0.30;;;;;;;;;;5032080;28;20021;-68
2022/01/09 00:33:57;;;;;;;0.22;0.20;;;;;;;;;;5031758;28;20027;-66
2022/01/09 00:36:22;;;;;;;0.20;0.10;;;;;;;;;;5031865;28;20064;-66
2022/01/09 00:38:47;;;;;;;0.28;0.28;;;;;;;;;;5031997;28;20314;-66
2022/01/09 00:41:13;;;;;;;0.23;0.10;;;;;;;;;;5033123;28;20029;-66
2022/01/09 00:43:38;;;;;;;0.73;0.20;;;;;;;;;;5035695;28;20261;-66
2022/01/09 00:46:03;;;;;;;0.80;0.20;;;;;;;;;;5035451;28;20052;-66
2022/01/09 00:48:28;;;;;;;1.63;0.10;;;;;;;;;;5035525;28;20672;-67
2022/01/09 00:50:53;;;;;;;0.77;0.20;;;;;;;;;;5035457;28;20255;-67
2022/01/09 00:53:18;;;;;;;0.40;0.10;;;;;;;;;;5035390;28;20041;-66
2022/01/09 00:55:44;;;;;;;0.40;0.10;;;;;;;;;;5035512;28;20044;-66
2022/01/09 00:58:09;;;;;;;0.20;0.10;;;;;;;;;;5035121;28;20025;-66
2022/01/09 01:00:35;;;;;;;0.45;0.20;;;;;;;;;;5035320;28;20056;-67
2022/01/09 01:03:00;;;;;;;1.00;0.30;;;;;;;;;;5035135;28;20045;-66
2022/01/09 01:05:25;;;;;;;0.70;0.13;;;;;;;;;;5035051;28;20084;-66
2022/01/09 01:07:51;;;;;;;1.20;0.20;;;;;;;;;;5035198;28;20014;-66
2022/01/09 01:10:16;;;;;;;0.70;0.10;;;;;;;;;;5034972;28;20234;-67
2022/01/09 01:12:41;;;;;;;0.60;0.20;;;;;;;;;;5035226;28;20593;-66
2022/01/09 01:15:07;;;;;;;0.32;0.20;;;;;;;;;;5034865;28;20030;-66
2022/01/09 01:17:33;;;;;;;0.50;0.10;;;;;;;;;;5035027;28;20033;-65
2022/01/09 01:19:58;;;;;;;0.95;0.20;;;;;;;;;;5034890;28;20018;-66
2022/01/09 01:22:23;;;;;;;1.50;0.15;;;;;;;;;;5034862;28;20036;-66
2022/01/09 01:24:49;;;;;;;1.75;0.30;;;;;;;;;;5034872;28;20059;-68
2022/01/09 01:27:14;;;;;;;0.75;0.20;;;;;;;;;;5034790;28;20044;-67
2022/01/09 01:29:39;;;;;;;1.27;0.13;;;;;;;;;;5035140;28;20059;-67
2022/01/09 01:32:05;;;;;;;0.57;0.32;;;;;;;;;;5034608;28;20096;-66
2022/01/09 01:34:30;;;;;;;0.80;0.22;;;;;;;;;;5034578;28;20052;-66
2022/01/09 01:36:55;;;;;;;0.50;0.20;;;;;;;;;;5034610;28;20024;-66
2022/01/09 01:39:20;;;;;;;0.30;0.17;;;;;;;;;;5034646;28;20021;-65
2022/01/09 01:41:46;;;;;;;2.05;0.57;;;;;;;;;;5034625;28;20068;-66
2022/01/09 01:44:11;;;;;;;1.08;0.10;;;;;;;;;;5034295;28;20064;-66
2022/01/09 01:46:37;;;;;;;0.38;0.10;;;;;;;;;;5034496;28;20492;-66
2022/01/09 01:49:02;;;;;;;0.32;0.10;;;;;;;;;;5034336;28;20025;-68
2022/01/09 01:51:28;;;;;;;0.25;0.20;;;;;;;;;;5033096;28;20400;-68
2022/01/09 01:53:55;;;;;;;1.40;0.20;;;;;;;;;;5031847;28;20029;-66
2022/01/09 01:56:21;;;;;;;0.22;0.10;;;;;;;;;;5034194;28;20009;-66
2022/01/09 01:58:47;;;;;;;0.68;0.40;;;;;;;;;;5034298;28;20111;-65
2022/01/09 02:01:12;;;;;;;1.13;0.20;;;;;;;;;;5034178;28;20021;-65
2022/01/09 02:03:38;;;;;;;1.25;0.17;;;;;;;;;;5042781;23;20469;-67
2022/01/09 02:06:04;;;;;;;0.45;0.30;;;;;;;;;;5052484;28;20029;-65
2022/01/09 02:08:30;;;;;;;0.65;0.30;;;;;;;;;;5053906;28;20464;-66
2022/01/09 02:10:55;;;;;;;0.52;0.10;;;;;;;;;;5053842;28;20044;-65
2022/01/09 02:13:21;;;;;;;0.13;0.10;;;;;;;;;;5053820;28;20464;-65
2022/01/09 02:15:47;;;;;;;0.63;0.10;;;;;;;;;;5053980;28;20394;-66
2022/01/09 02:18:20;;;;;;;1.77;0.68;;;;;;;;;;5053760;28;20047;-66
2022/01/09 02:20:45;;;;;;;0.70;0.20;;;;;;;;;;5052539;28;20055;-65
2022/01/09 02:23:12;;;;;;;0.70;0.20;;;;;;;;;;5053607;28;20380;-68
2022/01/09 02:25:37;;;;;;;0.82;0.22;;;;;;;;;;5053600;28;20057;-67
2022/01/09 02:28:03;;;;;;;0.75;0.28;;;;;;;;;;5053549;28;20104;-65
2022/01/09 02:30:32;;;;;;;1.80;0.20;;;;;;;;;;5053523;28;20017;-66
2022/01/09 02:32:57;;;;;;;0.88;0.22;;;;;;;;;;5053380;28;20573;-66
2022/01/09 02:35:23;;;;;;;0.75;0.28;;;;;;;;;;5053491;28;20428;-66
2022/01/09 02:37:48;;;;;;;0.10;0.10;;;;;;;;;;5053439;28;20020;-66
2022/01/09 02:40:13;;;;;;;0.47;0.20;;;;;;;;;;5053252;28;20087;-66
2022/01/09 02:42:39;;;;;;;0.45;0.20;;;;;;;;;;5053339;28;20725;-66
2022/01/09 02:45:04;;;;;;;0.85;0.30;;;;;;;;;;5053143;28;20021;-66
2022/01/09 02:47:32;;;;;;;1.20;0.30;;;;;;;;;;5053282;28;20025;-65
2022/01/09 02:50:06;;;;;;;0.82;0.20;;;;;;;;;;5053097;28;20027;-67
2022/01/09 02:52:35;;;;;;;0.70;0.30;;;;;;;;;;5053148;28;20020;-66
2022/01/09 02:55:14;;;;;;;0.90;0.10;;;;;;;;;;5052917;28;20024;-66
2022/01/09 02:57:40;;;;;;;0.30;0.13;;;;;;;;;;5053330;28;20021;-66
2022/01/09 03:00:07;;;;;;;0.60;0.22;;;;;;;;;;5051861;28;20349;-66
2022/01/09 03:02:32;;;;;;;0.50;0.40;;;;;;;;;;5052995;28;20501;-65
2022/01/09 03:04:57;;;;;;;0.60;0.17;;;;;;;;;;5052398;28;20131;-68
2022/01/09 03:07:22;;;;;;;0.43;0.30;;;;;;;;;;5052902;28;20434;-67
2022/01/09 03:09:47;;;;;;;0.73;0.20;;;;;;;;;;5052879;28;20261;-66
2022/01/09 03:12:12;;;;;;;0.47;0.10;;;;;;;;;;5052630;28;20575;-66
2022/01/09 03:14:38;;;;;;;1.10;0.30;;;;;;;;;;5052772;28;20333;-66
2022/01/09 03:17:03;;;;;;;0.20;0.17;;;;;;;;;;5051332;28;20273;-66
2022/01/09 03:19:28;;;;;;;0.30;0.20;;;;;;;;;;5052799;28;20064;-66
2022/01/09 03:21:53;;;;;;;0.28;0.17;;;;;;;;;;5052565;28;20510;-65
2022/01/09 03:24:19;;;;;;;0.52;0.20;;;;;;;;;;5052519;28;20028;-66
2022/01/09 03:26:44;;;;;;;1.17;0.30;;;;;;;;;;5052709;28;20533;-67
2022/01/09 03:29:09;;;;;;;0.80;0.20;;;;;;;;;;5052549;28;20028;-66
2022/01/09 03:31:34;;;;;;;1.10;0.30;;;;;;;;;;5052596;28;20258;-66
2022/01/09 03:33:59;;;;;;;0.80;0.10;;;;;;;;;;5052271;28;20029;-66
2022/01/09 03:36:24;;;;;;;1.07;0.30;;;;;;;;;;5052472;28;20254;-65
2022/01/09 03:38:50;;;;;;;1.03;0.37;;;;;;;;;;5052430;28;20764;-65
2022/01/09 03:41:15;;;;;;;1.47;0.30;;;;;;;;;;5052682;28;20238;-67
2022/01/09 03:43:40;;;;;;;1.13;0.20;;;;;;;;;;5052435;28;20250;-67
2022/01/09 03:46:05;;;;;;;0.73;0.20;;;;;;;;;;5052268;28;20225;-67
2022/01/09 03:48:32;;;;;;;2.08;0.43;;;;;;;;;;5052292;28;20060;-67
2022/01/09 03:50:57;;;;;;;0.73;0.20;;;;;;;;;;5052251;28;20032;-67
2022/01/09 03:53:22;;;;;;;0.28;0.20;;;;;;;;;;5052456;28;20009;-66
2022/01/09 03:55:47;;;;;;;0.60;0.30;;;;;;;;;;5052326;28;20025;-66
2022/01/09 03:58:12;;;;;;;0.82;0.25;;;;;;;;;;5052077;28;20472;-66
2022/01/09 04:00:37;;;;;;;0.95;0.20;;;;;;;;;;5052184;28;20026;-65
2022/01/09 04:03:03;;;;;;;0.57;0.17;;;;;;;;;;5052146;28;20028;-67
2022/01/09 04:05:28;;;;;;;0.63;0.30;;;;;;;;;;5051964;28;20044;-67
2022/01/09 04:07:53;;;;;;;0.03;0.00;;;;;;;;;;5050838;28;20593;-66
2022/01/09 04:10:20;;;;;;;0.93;0.10;;;;;;;;;;5051941;28;20341;-66
2022/01/09 04:12:50;;;;;;;0.20;0.10;;;;;;;;;;5052227;28;20250;-66
2022/01/09 04:15:16;;;;;;;1.35;0.22;;;;;;;;;;5051959;28;20017;-65
2022/01/09 04:20:07;;;;;;;0.20;0.17;;;;;;;;;;5056156;28;20052;-65
2022/01/09 04:22:33;;;;;;;0.80;0.50;;;;;;;;;;5055970;28;20020;-67
2022/01/09 04:24:58;;;;;;;1.17;0.47;;;;;;;;;;5055804;28;20575;-67
2022/01/09 04:27:23;;;;;;;1.60;0.15;;;;;;;;;;5055903;28;20465;-66
2022/01/09 04:29:48;;;;;;;0.85;0.20;;;;;;;;;;5055950;28;20063;-67
2022/01/09 04:32:13;;;;;;;1.25;0.30;;;;;;;;;;5055668;28;20032;-66
2022/01/09 04:34:39;;;;;;;1.77;0.37;;;;;;;;;;5056058;28;20032;-65
2022/01/09 04:37:04;;;;;;;0.87;0.30;;;;;;;;;;5055644;28;20499;-65
2022/01/09 04:39:29;;;;;;;1.20;0.10;;;;;;;;;;5054476;28;20017;-65
2022/01/09 04:41:54;;;;;;;0.95;0.20;;;;;;;;;;5055616;28;20725;-67
2022/01/09 04:44:20;;;;;;;0.80;0.40;;;;;;;;;;5055455;28;20020;-66
2022/01/09 04:46:52;;;;;;;1.50;0.15;;;;;;;;;;5055622;28;20029;-67
2022/01/09 04:49:22;;;;;;;0.50;0.30;;;;;;;;;;5055493;28;20032;-66
2022/01/09 04:51:47;;;;;;;1.20;0.13;;;;;;;;;;5055638;28;20020;-67
2022/01/09 04:54:12;;;;;;;0.87;0.20;;;;;;;;;;5055201;28;20071;-66
2022/01/09 04:56:37;;;;;;;1.13;0.20;;;;;;;;;;5055424;28;20262;-66
2022/01/09 04:59:03;;;;;;;1.40;0.83;;;;;;;;;;5055253;28;20325;-66
2022/01/09 05:01:28;;;;;;;0.35;0.35;;;;;;;;;;5055318;28;20705;-65
2022/01/09 05:03:53;;;;;;;1.50;0.27;;;;;;;;;;5055159;28;20431;-65
2022/01/09 05:06:19;;;;;;;0.13;0.13;;;;;;;;;;5055128;28;20266;-66
2022/01/09 05:08:44;;;;;;;0.52;0.10;;;;;;;;;;5055271;28;20329;-67
2022/01/09 05:11:09;;;;;;;1.13;0.30;;;;;;;;;;5054915;28;20031;-66
2022/01/09 05:13:35;;;;;;;0.20;0.20;;;;;;;;;;5055105;28;20021;-66
2022/01/09 05:16:00;;;;;;;0.30;0.20;;;;;;;;;;5055451;28;20021;-67
2022/01/09 05:18:25;;;;;;;0.87;0.20;;;;;;;;;;5054930;28;20020;-66
2022/01/09 05:20:50;;;;;;;0.57;0.10;;;;;;;;;;5054914;28;20265;-67
2022/01/09 05:23:16;;;;;;;0.40;0.10;;;;;;;;;;5054837;28;20598;-66
2022/01/09 05:25:41;;;;;;;0.65;0.30;;;;;;;;;;5054835;28;20028;-66
2022/01/09 05:28:06;;;;;;;0.83;0.20;;;;;;;;;;5054529;28;20044;-65
2022/01/09 05:30:31;;;;;;;0.97;0.10;;;;;;;;;;5054742;28;20259;-65
2022/01/09 05:32:57;;;;;;;0.35;0.20;;;;;;;;;;5054634;28;20343;-65
2022/01/09 05:35:22;;;;;;;0.88;0.10;;;;;;;;;;5054558;28;20188;-66
2022/01/09 05:37:48;;;;;;;0.38;0.20;;;;;;;;;;5054654;28;20028;-67
2022/01/09 05:40:13;;;;;;;0.45;0.10;;;;;;;;;;5054715;28;20017;-66
2022/01/09 05:42:38;;;;;;;0.68;0.20;;;;;;;;;;5054599;28;20017;-66
2022/01/09 05:45:05;;;;;;;1.30;0.30;;;;;;;;;;5054390;28;20066;-66
2022/01/09 05:47:30;;;;;;;1.10;0.30;;;;;;;;;;5054488;28;20583;-66
2022/01/09 05:49:55;;;;;;;0.57;0.10;;;;;;;;;;5054351;28;20040;-65
2022/01/09 05:52:20;;;;;;;1.15;0.30;;;;;;;;;;5054214;28;20602;-67
2022/01/09 05:54:45;;;;;;;0.38;0.10;;;;;;;;;;5054377;28;20071;-65
2022/01/09 05:57:11;;;;;;;0.50;0.13;;;;;;;;;;5054104;28;20021;-65
2022/01/09 05:59:36;;;;;;;0.20;0.10;;;;;;;;;;5054346;28;20494;-67
2022/01/09 06:02:01;;;;;;;0.43;0.20;;;;;;;;;;5054076;28;20021;-66
2022/01/09 06:04:26;;;;;;;1.40;0.10;;;;;;;;;;5052603;28;20769;-66
2022/01/09 06:06:52;;;;;;;0.93;0.35;;;;;;;;;;5054045;28;20524;-66
2022/01/09 06:09:17;;;;;;;0.50;0.10;;;;;;;;;;5053977;28;20433;-65
2022/01/09 06:11:42;;;;;;;0.97;0.20;;;;;;;;;;5054017;28;20032;-67
2022/01/09 06:14:07;;;;;;;0.88;0.10;;;;;;;;;;5053702;28;20685;-67
2022/01/09 06:16:32;;;;;;;0.68;0.10;;;;;;;;;;5053860;28;20518;-66
2022/01/09 06:18:59;;;;;;;2.13;0.17;;;;;;;;;;5053675;28;20023;-66
2022/01/09 06:21:26;;;;;;;0.20;0.13;;;;;;;;;;5053801;28;20109;-65
2022/01/09 06:23:51;;;;;;;0.70;0.10;;;;;;;;;;5053657;28;20476;-65
2022/01/09 06:26:16;;;;;;;0.52;0.10;;;;;;;;;;5053646;28;20049;-66
2022/01/09 06:28:41;;;;;;;1.48;0.20;;;;;;;;;;5053704;28;20028;-66
2022/01/09 06:31:06;;;;;;;1.07;0.10;;;;;;;;;;5053520;28;20090;-66
2022/01/09 06:33:32;;;;;;;0.75;0.10;;;;;;;;;;5053566;28;20036;-65
2022/01/09 06:35:57;;;;;;;1.80;0.20;;;;;;;;;;5053401;28;20094;-65
2022/01/09 06:38:22;;;;;;;0.83;0.30;;;;;;;;;;5052847;28;20246;-65
2022/01/09 06:40:47;;;;;;;1.07;0.30;;;;;;;;;;5053446;28;20079;-65
2022/01/09 06:43:12;;;;;;;0.73;0.10;;;;;;;;;;5053380;28;20249;-65
2022/01/09 06:45:37;;;;;;;0.53;0.30;;;;;;;;;;5052039;28;20116;-67
2022/01/09 06:48:03;;;;;;;0.30;0.10;;;;;;;;;;5053218;28;20254;-67
2022/01/09 06:50:28;;;;;;;0.50;0.17;;;;;;;;;;5053247;28;20254;-67
2022/01/09 06:52:54;;;;;;;1.02;0.30;;;;;;;;;;5053158;28;20021;-66
2022/01/09 06:55:19;;;;;;;1.02;0.25;;;;;;;;;;5053060;28;20411;-65
2022/01/09 06:57:44;;;;;;;0.30;0.22;;;;;;;;;;5053215;28;20017;-66
2022/01/09 07:00:10;;;;;;;1.03;0.20;;;;;;;;;;5053004;28;20059;-65
2022/01/09 07:02:36;;;;;;;0.85;0.20;;;;;;;;;;5053011;28;20234;-65
2022/01/09 07:05:01;;;;;;;0.38;0.10;;;;;;;;;;5052601;28;20052;-65
2022/01/09 07:07:26;;;;;;;0.50;0.20;;;;;;;;;;5052930;28;20480;-65
2022/01/09 07:09:52;;;;;;;0.90;0.10;;;;;;;;;;5052857;28;20040;-66
2022/01/09 07:12:17;;;;;;;0.43;0.10;;;;;;;;;;5052705;28;20769;-67
2022/01/09 07:14:42;;;;;;;0.88;0.20;;;;;;;;;;5052872;28;20037;-66
2022/01/09 07:17:07;;;;;;;0.57;0.20;;;;;;;;;;5052628;28;20100;-65
2022/01/09 07:19:32;;;;;;;0.77;0.10;;;;;;;;;;5052803;28;20059;-66
2022/01/09 07:21:58;;;;;;;1.00;0.10;;;;;;;;;;5051265;28;20254;-65
2022/01/09 07:24:23;;;;;;;1.43;0.20;;;;;;;;;;5052502;28;20028;-65
2022/01/09 07:26:48;;;;;;;2.20;0.20;;;;;;;;;;5051447;28;20262;-65
2022/01/09 07:29:13;;;;;;;0.55;0.10;;;;;;;;;;5052527;28;20025;-65
2022/01/09 07:31:38;;;;;;;1.10;0.10;;;;;;;;;;5052707;28;20029;-67
2022/01/09 07:34:04;;;;;;;0.45;0.10;;;;;;;;;;5052286;28;20461;-65
2022/01/09 07:36:29;;;;;;;0.10;0.03;;;;;;;;;;5052486;28;20025;-66
2022/01/09 07:38:54;;;;;;;0.83;0.20;;;;;;;;;;5052406;28;20020;-66
2022/01/09 07:41:20;;;;;;;0.50;0.17;;;;;;;;;;5052394;28;20698;-65
2022/01/09 07:43:45;;;;;;;0.30;0.20;;;;;;;;;;5053088;28;20021;-67
2022/01/09 07:46:11;;;;;;;0.30;0.10;;;;;;;;;;5052186;28;20032;-65
2022/01/09 07:48:36;;;;;;;0.10;0.10;;;;;;;;;;5052401;28;20061;-67
2022/01/09 07:51:01;;;;;;;1.27;0.17;;;;;;;;;;5051253;28;20017;-65
2022/01/09 07:53:26;;;;;;;0.63;0.20;;;;;;;;;;5052331;28;20361;-66
2022/01/09 07:55:52;;;;;;;1.70;0.20;;;;;;;;;;5052261;28;20258;-65
2022/01/09 07:58:17;;;;;;;0.38;0.10;;;;;;;;;;5052114;28;20470;-67
2022/01/09 08:00:43;;;;;;;0.10;0.10;;;;;;;;;;5052329;28;20453;-66
2022/01/09 08:03:08;;;;;;;0.47;0.13;;;;;;;;;;5052065;28;20017;-66
2022/01/09 08:05:33;;;;;;;0.52;0.25;;;;;;;;;;5052114;28;20049;-65
2022/01/09 08:07:59;;;;;;;0.45;0.10;;;;;;;;;;5052032;28;20013;-65
2022/01/09 08:10:24;;;;;;;0.87;0.20;;;;;;;;;;5052036;28;20036;-67
2022/01/09 08:12:49;;;;;;;0.95;0.38;;;;;;;;;;5052111;28;20721;-66
2022/01/09 08:15:14;;;;;;;0.43;0.10;;;;;;;;;;5052263;28;20021;-66
2022/01/09 08:17:42;;;;;;;0.65;0.22;;;;;;;;;;5052446;28;20253;-65
2022/01/09 08:20:07;;;;;;;0.57;0.30;;;;;;;;;;5051916;28;20021;-65
2022/01/09 08:22:33;;;;;;;0.85;0.22;;;;;;;;;;5052032;28;20112;-65
2022/01/09 08:24:58;;;;;;;0.88;0.30;;;;;;;;;;5051869;28;20021;-67
2022/01/09 08:27:23;;;;;;;1.47;0.50;;;;;;;;;;5052054;28;20386;-66
2022/01/09 08:29:48;;;;;;;0.70;0.20;;;;;;;;;;5052551;28;20017;-66
2022/01/09 08:32:14;;;;;;;0.30;0.20;;;;;;;;;;5051814;28;20017;-65
2022/01/09 08:34:39;;;;;;;1.03;0.20;;;;;;;;;;5051849;28;20289;-68
2022/01/09 08:37:07;;;;;;;1.17;0.13;;;;;;;;;;5051786;28;20262;-66
2022/01/09 08:39:32;;;;;;;1.10;0.32;;;;;;;;;;5050652;28;20579;-67
2022/01/09 08:41:58;;;;;;;0.40;0.20;;;;;;;;;;5051774;28;20036;-66
2022/01/09 08:44:23;;;;;;;0.63;0.20;;;;;;;;;;5051815;28;20021;-67
2022/01/09 08:46:48;;;;;;;1.20;0.13;;;;;;;;;;5051777;28;20112;-66
2022/01/09 08:49:13;;;;;;;0.50;0.20;;;;;;;;;;5051743;28;20112;-65
2022/01/09 08:51:38;;;;;;;1.10;0.32;;;;;;;;;;5051799;28;20250;-65
2022/01/09 08:54:03;;;;;;;1.70;0.20;;;;;;;;;;5051628;28;20071;-66
2022/01/09 08:56:29;;;;;;;0.75;0.17;;;;;;;;;;5051640;28;20017;-65
2022/01/09 08:58:54;;;;;;;1.08;0.20;;;;;;;;;;5051702;28;20017;-66
2022/01/09 09:01:20;;;;;;;0.25;0.10;;;;;;;;;;5050452;28;20096;-66
2022/01/09 09:03:45;;;;;;;1.27;0.30;;;;;;;;;;5055256;28;20112;-65
2022/01/09 09:06:11;;;;;;;0.85;0.28;;;;;;;;;;5054933;28;20277;-66
2022/01/09 09:08:37;;;;;;;1.15;0.30;;;;;;;;;;5055476;28;20049;-65
2022/01/09 09:11:03;;;;;;;0.50;0.10;;;;;;;;;;5055038;28;20472;-65
2022/01/09 09:13:28;;;;;;;0.10;0.00;;;;;;;;;;5055063;28;20036;-67
2022/01/09 09:15:53;;;;;;;0.50;0.30;;;;;;;;;;5055078;28;20012;-66
2022/01/09 09:18:18;;;;;;;1.65;0.10;;;;;;;;;;5054914;28;20250;-66
2022/01/09 09:20:44;;;;;;;1.08;0.10;;;;;;;;;;5054998;28;20028;-65
2022/01/09 09:23:09;;;;;;;0.65;0.10;;;;;;;;;;5054791;28;20240;-65
2022/01/09 09:25:34;;;;;;;0.55;0.20;;;;;;;;;;5054872;28;20043;-65
2022/01/09 09:28:00;;;;;;;0.50;0.20;;;;;;;;;;5054755;28;20028;-65
2022/01/09 09:30:25;;;;;;;0.37;0.10;;;;;;;;;;5054030;28;20020;-66
2022/01/09 09:32:50;;;;;;;0.57;0.20;;;;;;;;;;5054724;28;20313;-66
2022/01/09 09:35:15;;;;;;;0.40;0.00;;;;;;;;;;5054519;28;20020;-65
2022/01/09 09:37:40;;;;;;;0.63;0.30;;;;;;;;;;5054731;28;20337;-65
2022/01/09 09:40:06;;;;;;;1.23;0.10;;;;;;;;;;5054463;28;20235;-65
2022/01/09 09:42:31;;;;;;;0.43;0.10;;;;;;;;;;5054517;28;20265;-67
2022/01/09 09:45:00;;;;;;;0.53;0.10;;;;;;;;;;5054508;28;20017;-66
2022/01/09 09:47:26;;;;;;;0.30;0.10;;;;;;;;;;5054453;28;20032;-65
2022/01/09 09:49:51;;;;;;;1.50;0.20;;;;;;;;;;5053167;28;20025;-65
2022/01/09 09:52:18;;;;;;;1.10;0.20;;;;;;;;;;5054257;28;20032;-66
2022/01/09 09:54:44;;;;;;;1.85;0.60;;;;;;;;;;5054346;28;20269;-66
2022/01/09 09:57:10;;;;;;;1.30;0.20;;;;;;;;;;5054085;28;20381;-66
2022/01/09 09:59:36;;;;;;;1.05;0.25;;;;;;;;;;5054347;28;20028;-66
2022/01/09 10:02:07;;;;;;;0.65;0.13;;;;;;;;;;5054056;28;20024;-66
2022/01/09 10:04:32;;;;;;;0.65;0.10;;;;;;;;;;5053844;28;20060;-66
2022/01/09 10:06:57;;;;;;;0.40;0.20;;;;;;;;;;5053126;28;20400;-66
2022/01/09 10:09:24;;;;;;;1.07;0.40;;;;;;;;;;5054017;28;20100;-66
2022/01/09 10:11:57;;;;;;;0.35;0.10;;;;;;;;;;5054059;28;20252;-66
2022/01/09 10:14:22;;;;;;;0.35;0.10;;;;;;;;;;5052825;28;20035;-65
2022/01/09 10:17:06;;;;;;;0.90;0.20;;;;;;;;;;5054071;28;20017;-65
2022/01/09 10:19:41;;;;;;;0.40;0.10;;;;;;;;;;5053930;28;20246;-66
2022/01/09 10:22:06;;;;;;;1.05;0.20;;;;;;;;;;5053666;28;20029;-65
2022/01/09 10:24:32;;;;;;;0.30;0.10;;;;;;;;;;5053935;28;20066;-66
2022/01/09 10:26:57;;;;;;;1.30;0.30;;;;;;;;;;5053704;28;20304;-67
2022/01/09 10:29:22;;;;;;;1.00;0.30;;;;;;;;;;5054044;28;20629;-67
2022/01/09 10:31:50;;;;;;;0.20;0.10;;;;;;;;;;5053771;28;20266;-67
2022/01/09 10:34:16;;;;;;;1.20;0.20;;;;;;;;;;5053333;28;20269;-67
2022/01/09 10:36:43;;;;;;;0.52;0.10;;;;;;;;;;5053629;28;20055;-66
2022/01/09 10:39:12;;;;;;;0.35;0.20;;;;;;;;;;5053348;28;20471;-66
2022/01/09 10:42:04;;;;;;;0.55;0.20;;;;;;;;;;5053526;28;20023;-65
2022/01/09 10:44:31;;;;;;;0.82;0.20;;;;;;;;;;5050191;28;20028;-66
2022/01/09 10:46:59;;;;;;;0.65;0.20;;;;;;;;;;5053285;28;20104;-67
2022/01/09 10:49:34;;;;;;;0.88;0.20;;;;;;;;;;5053616;28;20025;-66
2022/01/09 10:52:18;;;;;;;0.60;0.10;;;;;;;;;;5051847;28;20031;-67
2022/01/09 10:54:46;;;;;;;1.02;0.30;;;;;;;;;;5053213;28;20491;-67
2022/01/09 10:57:22;;;;;;;1.60;0.65;;;;;;;;;;5053295;28;20013;-66
2022/01/09 10:59:47;;;;;;;1.55;0.35;;;;;;;;;;5053176;28;20023;-66
2022/01/09 11:02:13;;;;;;;0.70;0.40;;;;;;;;;;5051588;28;20013;-67
2022/01/09 11:04:39;;;;;;;0.45;0.17;;;;;;;;;;5052923;28;20453;-66
2022/01/09 11:07:05;;;;;;;1.25;0.20;;;;;;;;;;5052893;28;20063;-66
2022/01/09 11:09:32;;;;;;;0.65;0.20;;;;;;;;;;5052918;28;20024;-65
2022/01/09 11:11:58;;;;;;;0.68;0.10;;;;;;;;;;5052797;28;20028;-66
2022/01/09 11:14:23;;;;;;;0.40;0.20;;;;;;;;;;5052699;28;20029;-65
2022/01/09 11:16:51;;;;;;;0.50;0.30;;;;;;;;;;5051528;28;20032;-65
2022/01/09 11:19:20;;;;;;;0.63;0.20;;;;;;;;;;5053038;28;20028;-65
2022/01/09 11:21:47;;;;;;;0.93;0.20;;;;;;;;;;5052764;28;20056;-67
2022/01/09 11:24:27;;;;;;;0.98;0.20;;;;;;;;;;5052420;28;20008;-66
2022/01/09 11:27:11;;;;;;;0.60;0.10;;;;;;;;;;5051361;28;20021;-67
2022/01/09 11:29:55;;;;;;;1.38;0.25;;;;;;;;;;5052692;28;20595;-67
2022/01/09 11:32:20;;;;;;;1.23;0.20;;;;;;;;;;5052459;28;20029;-66
2022/01/09 11:34:50;;;;;;;1.00;0.40;;;;;;;;;;5052549;28;20266;-65
2022/01/09 11:37:25;;;;;;;1.58;0.52;;;;;;;;;;5052461;28;20092;-66
2022/01/09 11:39:51;;;;;;;0.60;0.10;;;;;;;;;;5052484;28;20027;-65
2022/01/09 11:42:16;;;;;;;1.08;0.20;;;;;;;;;;5052338;28;20462;-65
2022/01/09 11:44:46;;;;;;;1.13;0.28;;;;;;;;;;5052519;28;20025;-65
2022/01/09 11:47:12;;;;;;;0.30;0.10;;;;;;;;;;5052348;28;20017;-65
2022/01/09 11:49:39;;;;;;;0.40;0.13;;;;;;;;;;5052423;28;20368;-67
2022/01/09 11:52:05;;;;;;;1.02;0.20;;;;;;;;;;5052231;28;20024;-67
2022/01/09 11:54:46;;;;;;;1.83;0.25;;;;;;;;;;5052186;28;20052;-65
2022/01/09 11:57:14;;;;;;;0.82;0.20;;;;;;;;;;5052394;28;20452;-65
2022/01/09 11:59:45;;;;;;;0.20;0.10;;;;;;;;;;5052666;28;20366;-66
2022/01/09 12:02:16;;;;;;;0.47;0.20;;;;;;;;;;5052035;28;20468;-65
2022/01/09 12:04:42;;;;;;;0.45;0.10;;;;;;;;;;5052084;28;20508;-65
2022/01/09 12:07:08;;;;;;;1.70;0.40;;;;;;;;;;5052026;28;20021;-67
2022/01/09 12:09:35;;;;;;;0.40;0.05;;;;;;;;;;5050942;28;20017;-66
2022/01/09 12:12:03;;;;;;;1.38;0.17;;;;;;;;;;5052316;28;20078;-65
2022/01/09 12:14:55;;;;;;;1.13;0.20;;;;;;;;;;5052025;28;20484;-65
2022/01/09 12:17:20;;;;;;;0.52;0.20;;;;;;;;;;5043129;28;20029;-64
2022/01/09 12:20:03;;;;;;;0.45;0.10;;;;;;;;;;5050912;28;20013;-66
2022/01/09 12:22:48;;;;;;;1.02;0.28;;;;;;;;;;5051994;28;20017;-66
2022/01/09 12:25:23;;;;;;;0.30;0.20;;;;;;;;;;5052255;28;20025;-66
2022/01/09 12:27:48;;;;;;;;;;;;;;;;;;5052513;28;20021;-66
2022/01/09 12:33:10;;;;;;;0.65;0.20;;;;;;;;;;5052120;28;20037;-66
2022/01/09 12:35:45;;;;;;;2.85;0.30;;;;;;;;;;5051930;28;20021;-66
2022/01/09 12:38:15;;;;;;;0.32;0.15;;;;;;;;;;5053369;28;20187;-66
2022/01/09 12:40:41;;;;;;;0.68;0.10;;;;;;;;;;5055873;28;20544;-66
2022/01/09 12:43:07;;;;;;;0.50;0.17;;;;;;;;;;5054335;28;20017;-66
2022/01/09 12:45:36;;;;;;;0.57;0.28;;;;;;;;;;5055693;28;20349;-65
2022/01/09 12:48:02;;;;;;;0.70;0.20;;;;;;;;;;5055570;28;20024;-66
2022/01/09 12:50:29;;;;;;;0.50;0.20;;;;;;;;;;5055526;28;20349;-65
2022/01/09 12:53:13;;;;;;;0.80;0.30;;;;;;;;;;5055536;28;20033;-67
2022/01/09 12:55:57;;;;;;;0.40;0.28;;;;;;;;;;5055500;28;20025;-66
2022/01/09 12:58:26;;;;;;;0.40;0.17;;;;;;;;;;5055546;28;20024;-65
2022/01/09 13:00:52;;;;;;;1.17;0.20;;;;;;;;;;5055439;28;20407;-66
2022/01/09 13:03:18;;;;;;;1.38;0.28;;;;;;;;;;5055340;28;20507;-65
2022/01/09 13:05:51;;;;;;;1.00;0.30;;;;;;;;;;5055237;28;20051;-64
2022/01/09 13:08:17;;;;;;;0.63;0.35;;;;;;;;;;5055068;28;20203;-65
2022/01/09 13:10:42;;;;;;;0.90;0.22;;;;;;;;;;5055155;28;20032;-65
2022/01/09 13:13:10;;;;;;;0.30;0.10;;;;;;;;;;5055153;28;20381;-65
2022/01/09 13:15:36;;;;;;;1.17;0.28;;;;;;;;;;5055049;28;20266;-65
2022/01/09 13:18:02;;;;;;;1.13;0.10;;;;;;;;;;5054970;28;20013;-66
2022/01/09 13:20:27;;;;;;;0.82;0.30;;;;;;;;;;5054783;28;20021;-66
2022/01/09 13:23:03;;;;;;;0.45;0.22;;;;;;;;;;5054924;28;20021;-66
2022/01/09 13:25:28;;;;;;;1.55;0.25;;;;;;;;;;5055136;28;20104;-65
2022/01/09 13:27:53;;;;;;;0.93;0.30;;;;;;;;;;5054882;28;20104;-65
2022/01/09 13:30:20;;;;;;;0.30;0.10;;;;;;;;;;5054731;28;20487;-65
2022/01/09 13:32:45;;;;;;;1.27;0.35;;;;;;;;;;5054889;28;20407;-65
2022/01/09 13:35:11;;;;;;;1.08;0.30;;;;;;;;;;5054540;28;20546;-66
2022/01/09 13:37:36;;;;;;;1.42;0.35;;;;;;;;;;5054689;28;20025;-66
2022/01/09 13:40:02;;;;;;;1.83;0.15;;;;;;;;;;5054849;28;20017;-66
2022/01/09 13:42:30;;;;;;;0.52;0.25;;;;;;;;;;5054551;28;20499;-65
2022/01/09 13:45:04;;;;;;;1.05;0.20;;;;;;;;;;5054450;28;20039;-66
2022/01/09 13:47:29;;;;;;;0.65;0.30;;;;;;;;;;5053232;28;20029;-66
2022/01/09 13:49:54;;;;;;;1.25;0.35;;;;;;;;;;5053125;28;20179;-65
2022/01/09 13:52:21;;;;;;;1.65;0.20;;;;;;;;;;5054313;28;20123;-65
2022/01/09 13:55:00;;;;;;;1.33;0.10;;;;;;;;;;5054450;28;20083;-66
2022/01/09 13:57:26;;;;;;;0.43;0.28;;;;;;;;;;5054659;28;20029;-65
2022/01/09 13:59:52;;;;;;;0.50;0.10;;;;;;;;;;5054293;28;20024;-64
2022/01/09 14:02:18;;;;;;;0.70;0.22;;;;;;;;;;5054090;28;20017;-66
2022/01/09 14:04:44;;;;;;;0.35;0.30;;;;;;;;;;5054215;28;20071;-66
2022/01/09 14:07:16;;;;;;;0.77;0.17;;;;;;;;;;5053910;28;20032;-65
2022/01/09 14:09:43;;;;;;;1.70;0.15;;;;;;;;;;5054156;28;20052;-65
2022/01/09 14:12:09;;;;;;;2.40;0.70;;;;;;;;;;5053953;28;20049;-65
2022/01/09 14:14:36;;;;;;;0.80;0.22;;;;;;;;;;5054007;28;20028;-65
2022/01/09 14:17:21;;;;;;;1.20;0.20;;;;;;;;;;5053890;28;20013;-65
2022/01/09 14:19:47;;;;;;;1.45;0.30;;;;;;;;;;5053973;28;20444;-64
2022/01/09 14:22:12;;;;;;;0.98;0.20;;;;;;;;;;5053937;28;20070;-64
2022/01/09 14:24:57;;;;;;;0.75;0.20;;;;;;;;;;5053175;28;20036;-66
2022/01/09 14:27:22;;;;;;;;;;;;;;;;;;5054190;28;20028;-65
2022/01/09 14:29:47;;;;;;;1.50;0.32;;;;;;;;;;5053673;28;19904;-66
2022/01/09 14:32:16;;;;;;;1.10;0.30;;;;;;;;;;5053487;28;20021;-65
2022/01/09 14:34:41;;;;;;;1.00;0.20;;;;;;;;;;5053543;28;20319;-65
2022/01/09 14:37:13;;;;;;;0.95;0.35;;;;;;;;;;5053409;28;20044;-65
2022/01/09 14:39:38;;;;;;;0.85;0.10;;;;;;;;;;5053515;28;20071;-65
2022/01/09 14:42:06;;;;;;;1.27;0.17;;;;;;;;;;5053345;28;20021;-65
2022/01/09 14:44:32;;;;;;;0.93;0.10;;;;;;;;;;5053704;28;20059;-64
2022/01/09 14:46:57;;;;;;;0.77;0.10;;;;;;;;;;5053184;28;20048;-66